Time;durP1;ratioP1;P1;durP2;ratioP2;P2;SDS_P1;SDS_P2;PMS_P1;PMS_P2;Temp;Humidity;BMP_temperature;BMP_pressure;BME280_temperature;BME280_humidity;BME280_pressure;Samples;Min_cycle;Max_cycle;Signal;HPM_P1;HPM_P2
2023/05/17 00:01:36;;;;;;;11.43;4.10;;;;;;;7.61;90.11;102381.25;4990197;28;20046;-70
2023/05/17 00:04:01;;;;;;;10.45;3.90;;;;;;;7.57;90.77;102376.88;4997613;28;20061;-71
2023/05/17 00:06:27;;;;;;;11.15;5.82;;;;;;;7.57;91.92;102383.19;4990657;28;20034;-71
2023/05/17 00:08:53;;;;;;;13.95;3.65;;;;;;;7.56;91.51;102380.53;4988397;28;20026;-70
2023/05/17 00:11:18;;;;;;;13.23;4.15;;;;;;;7.52;91.94;102378.88;4989571;28;20034;-70
2023/05/17 00:13:43;;;;;;;14.80;3.42;;;;;;;7.51;91.74;102396.06;4989186;28;20469;-70
2023/05/17 00:16:09;;;;;;;10.32;4.00;;;;;;;7.47;92.85;102392.56;4990324;28;20700;-70
2023/05/17 00:18:35;;;;;;;14.70;4.78;;;;;;;7.45;92.87;102388.13;4989948;28;20053;-71
2023/05/17 00:21:00;;;;;;;20.17;4.78;;;;;;;7.44;91.80;102391.78;4993440;28;20483;-70
2023/05/17 00:23:25;;;;;;;7.97;3.60;;;;;;;7.41;92.32;102388.25;5003619;28;20038;-70
2023/05/17 00:25:51;;;;;;;15.52;3.83;;;;;;;7.41;92.30;102385.56;5002011;28;20265;-70
2023/05/17 00:28:16;;;;;;;16.33;4.55;;;;;;;7.44;92.81;102387.25;4989473;28;20309;-70
2023/05/17 00:30:42;;;;;;;10.45;3.72;;;;;;;7.49;91.83;102387.09;4990187;28;20498;-70
2023/05/17 00:33:07;;;;;;;10.82;4.18;;;;;;;7.47;92.46;102384.44;4990090;28;20038;-70
2023/05/17 00:35:32;;;;;;;9.10;3.50;;;;;;;7.49;92.91;102381.69;4990533;28;20537;-72
2023/05/17 00:37:58;;;;;;;12.05;4.45;;;;;;;7.50;93.89;102386.16;4988587;28;20046;-71
2023/05/17 00:40:23;;;;;;;9.52;4.18;;;;;;;7.49;93.60;102384.38;4989778;28;20065;-71
2023/05/17 00:42:49;;;;;;;13.73;4.20;;;;;;;7.48;94.02;102383.50;4989507;28;20044;-71
2023/05/17 00:45:14;;;;;;;10.88;4.32;;;;;;;7.44;93.29;102381.84;4988579;28;20125;-71
2023/05/17 00:47:41;;;;;;;10.13;3.95;;;;;;;7.46;92.94;102376.34;4989865;28;20034;-72
2023/05/17 00:50:07;;;;;;;15.45;4.10;;;;;;;7.44;93.79;102375.53;4988145;28;20030;-72
2023/05/17 00:52:32;;;;;;;10.82;5.45;;;;;;;7.45;93.98;102377.31;4988915;28;20045;-72
2023/05/17 00:54:58;;;;;;;7.88;4.15;;;;;;;7.45;93.89;102388.13;4989953;28;20492;-71
2023/05/17 00:57:23;;;;;;;16.42;4.25;;;;;;;7.45;94.94;102380.00;4988932;28;20053;-71
2023/05/17 00:59:51;;;;;;;12.32;3.78;;;;;;;7.44;93.59;102378.25;4988361;28;20442;-71
2023/05/17 01:02:16;;;;;;;16.73;4.50;;;;;;;7.39;94.78;102373.88;4988318;28;20037;-71
2023/05/17 01:04:42;;;;;;;12.65;4.05;;;;;;;7.36;95.72;102373.97;5007619;28;20534;-71
2023/05/17 01:07:08;;;;;;;14.27;4.30;;;;;;;7.33;94.78;102386.75;5006847;28;20058;-71
2023/05/17 01:09:34;;;;;;;12.10;4.05;;;;;;;7.30;95.29;102382.31;4993390;28;20471;-72
2023/05/17 01:12:22;;;;;;;10.18;4.00;;;;;;;7.28;95.05;102381.50;4988977;28;20042;-70
2023/05/17 01:15:07;;;;;;;17.42;4.43;;;;;;;7.30;94.70;102379.59;4988431;28;20490;-70
2023/05/17 01:17:43;;;;;;;11.15;3.63;;;;;;;7.29;93.97;102379.66;4988794;28;20527;-70
2023/05/17 01:20:25;;;;;;;13.50;3.35;;;;;;;7.29;94.90;102375.13;4989331;28;20038;-71
2023/05/17 01:22:57;;;;;;;13.18;3.92;;;;;;;7.28;94.57;102373.38;4986267;28;20442;-71
2023/05/17 01:25:48;;;;;;;12.38;4.43;;;;;;;7.30;95.65;102384.13;4987679;28;20042;-71
2023/05/17 01:28:16;;;;;;;8.20;4.57;;;;;;;7.24;96.35;102387.06;5003552;28;20358;-71
2023/05/17 01:30:45;;;;;;;11.90;4.03;;;;;;;7.20;96.74;102391.69;4989160;28;20577;-71
2023/05/17 01:33:11;;;;;;;16.73;4.50;;;;;;;7.18;96.51;102388.16;4992172;28;20030;-70
2023/05/17 01:35:40;;;;;;;13.20;4.15;;;;;;;7.16;96.57;102388.19;4987806;28;20041;-71
2023/05/17 01:38:05;;;;;;;16.98;4.22;;;;;;;7.16;96.91;102385.47;4985643;28;20046;-71
2023/05/17 01:40:34;;;;;;;13.07;4.22;;;;;;;7.15;97.05;102382.84;4987964;28;20034;-71
2023/05/17 01:43:20;;;;;;;17.25;4.45;;;;;;;7.11;95.92;102375.75;4988916;28;20112;-71
2023/05/17 01:46:23;;;;;;;11.57;4.15;;;;;;;7.13;96.37;102373.88;4996188;28;20459;-71
2023/05/17 01:49:09;;;;;;;16.52;4.68;;;;;;;7.11;96.13;102392.00;4988814;28;20034;-72
2023/05/17 01:51:45;;;;;;;13.55;3.42;;;;;;;7.11;95.58;102383.88;4988273;28;20034;-72
2023/05/17 01:54:12;;;;;;;22.70;4.78;;;;;;;7.08;96.15;102375.84;5002544;28;20375;-72
2023/05/17 01:56:42;;;;;;;16.98;3.97;;;;;;;7.07;95.42;102382.19;4986771;28;20506;-71
2023/05/17 01:59:10;;;;;;;11.60;4.00;;;;;;;7.05;95.07;102381.38;4987507;28;20038;-72
2023/05/17 02:01:37;;;;;;;9.65;3.95;;;;;;;7.02;95.07;102385.06;4988460;28;20097;-72
2023/05/17 02:04:03;;;;;;;14.30;5.03;;;;;;;7.02;95.80;102393.19;5002101;28;20043;-71
2023/05/17 02:06:30;;;;;;;17.95;5.45;;;;;;;6.96;95.30;102389.78;5006787;28;20045;-71
2023/05/17 02:08:57;;;;;;;9.55;3.42;;;;;;;6.92;95.51;102383.59;4988597;28;20386;-72
2023/05/17 02:11:22;;;;;;;17.95;4.32;;;;;;;6.92;95.72;102380.88;4986428;28;20490;-71
2023/05/17 02:13:51;;;;;;;13.88;5.10;;;;;;;6.91;95.37;102398.06;4986562;28;20076;-72
2023/05/17 02:16:16;;;;;;;14.63;5.22;;;;;;;6.87;95.51;102375.63;4986739;28;20498;-71
2023/05/17 02:18:41;;;;;;;17.33;5.78;;;;;;;6.84;95.85;102388.34;4986608;28;20462;-71
2023/05/17 02:21:07;;;;;;;8.60;3.92;;;;;;;6.81;95.43;102383.94;4986033;28;20034;-71
2023/05/17 02:23:34;;;;;;;10.93;3.78;;;;;;;6.81;95.18;102373.13;5002143;28;20068;-72
2023/05/17 02:26:00;;;;;;;12.00;4.97;;;;;;;6.79;95.24;102383.09;4989348;28;20058;-71
2023/05/17 02:28:26;;;;;;;16.58;4.88;;;;;;;6.82;96.19;102387.53;4986329;28;20030;-71
2023/05/17 02:30:52;;;;;;;18.17;5.07;;;;;;;6.83;96.33;102379.34;4986770;28;20096;-72
2023/05/17 02:33:17;;;;;;;11.73;4.75;;;;;;;6.86;97.09;102386.50;4986133;28;20527;-72
2023/05/17 02:35:43;;;;;;;11.15;4.35;;;;;;;6.87;96.32;102388.28;4987224;28;20066;-71
2023/05/17 02:38:08;;;;;;;11.45;4.40;;;;;;;6.86;95.79;102389.22;5001007;28;20061;-71
2023/05/17 02:40:33;;;;;;;14.18;4.70;;;;;;;6.81;95.98;102393.88;5002243;28;20038;-71
2023/05/17 02:43:01;;;;;;;12.88;4.28;;;;;;;6.82;95.30;102395.66;4999997;28;20031;-71
2023/05/17 02:45:27;;;;;;;16.90;4.72;;;;;;;6.82;96.66;102395.66;4987025;28;20406;-71
2023/05/17 02:47:52;;;;;;;14.02;4.93;;;;;;;6.86;97.09;102400.91;4987550;28;20026;-71
2023/05/17 02:50:18;;;;;;;16.05;5.00;;;;;;;6.95;96.36;102405.16;5002729;28;20034;-71
2023/05/17 02:52:43;;;;;;;17.77;5.93;;;;;;;7.00;96.76;102403.19;5001080;28;20101;-71
2023/05/17 02:55:09;;;;;;;14.57;5.80;;;;;;;7.05;97.95;102400.31;4986299;28;20034;-71
2023/05/17 02:57:34;;;;;;;13.70;4.95;;;;;;;7.09;97.23;102404.69;5000157;28;20407;-71
2023/05/17 02:59:59;;;;;;;11.98;4.55;;;;;;;7.14;96.78;102403.59;4988004;28;20108;-71
2023/05/17 03:02:26;;;;;;;12.35;5.05;;;;;;;7.19;97.62;102416.09;4987862;28;20380;-71
2023/05/17 03:04:51;;;;;;;10.70;5.10;;;;;;;7.21;97.90;102408.81;4989314;28;20045;-71
2023/05/17 03:07:17;;;;;;;11.80;4.68;;;;;;;7.27;97.33;102411.28;4985194;28;20355;-71
2023/05/17 03:09:43;;;;;;;13.18;5.40;;;;;;;7.31;97.85;102416.56;4985487;28;20101;-71
2023/05/17 03:12:08;;;;;;;18.45;5.50;;;;;;;7.35;98.22;102404.69;4985299;28;20042;-71
2023/05/17 03:14:34;;;;;;;19.40;5.75;;;;;;;7.37;97.44;102416.38;4985888;28;20132;-72
2023/05/17 03:17:00;;;;;;;14.45;5.38;;;;;;;7.41;97.26;102409.91;4986496;28;20037;-71
2023/05/17 03:19:26;;;;;;;13.75;5.32;;;;;;;7.46;97.62;102420.59;4986013;28;20038;-71
2023/05/17 03:21:51;;;;;;;18.23;5.28;;;;;;;7.50;97.59;102427.66;4984860;28;20262;-72
2023/05/17 03:24:17;;;;;;;14.93;5.22;;;;;;;7.53;97.20;102423.97;4985141;28;20038;-72
2023/05/17 03:26:43;;;;;;;11.85;5.93;;;;;;;7.55;97.69;102416.66;4993449;28;20038;-71
2023/05/17 03:29:10;;;;;;;15.93;5.20;;;;;;;7.60;97.54;102422.78;4985458;28;20034;-72
2023/05/17 03:31:38;;;;;;;13.70;5.47;;;;;;;7.62;97.41;102424.53;4986170;28;20446;-71
2023/05/17 03:34:03;;;;;;;20.88;6.15;;;;;;;7.66;98.05;102428.03;4989203;28;20029;-72
2023/05/17 03:36:30;;;;;;;13.25;4.97;;;;;;;7.64;97.68;102430.75;4989763;28;20049;-72
2023/05/17 03:38:56;;;;;;;19.75;5.40;;;;;;;7.67;98.74;102429.78;4988778;28;20101;-72
2023/05/17 03:41:21;;;;;;;17.58;4.90;;;;;;;7.69;98.03;102427.91;4992297;28;20452;-71
2023/05/17 03:43:47;;;;;;;20.70;6.00;;;;;;;7.70;97.91;102432.41;4995408;28;20035;-72
2023/05/17 03:46:14;;;;;;;11.10;4.78;;;;;;;7.73;98.13;102434.09;4989694;28;20572;-71
2023/05/17 03:48:39;;;;;;;15.40;5.72;;;;;;;7.73;97.73;102440.41;4988944;28;20073;-71
2023/05/17 03:51:05;;;;;;;18.67;5.85;;;;;;;7.72;97.58;102435.94;4989542;28;20406;-72
2023/05/17 03:53:32;;;;;;;14.88;5.40;;;;;;;7.66;97.53;102428.91;4988860;28;20026;-71
2023/05/17 03:55:57;;;;;;;16.15;5.25;;;;;;;7.69;97.23;102441.44;4991190;28;20496;-72
2023/05/17 03:58:23;;;;;;;18.02;5.63;;;;;;;7.64;97.61;102435.31;4988804;28;20022;-72
2023/05/17 04:00:48;;;;;;;15.00;5.25;;;;;;;7.63;97.89;102442.53;4989052;28;20041;-71
2023/05/17 04:03:16;;;;;;;9.95;4.72;;;;;;;7.63;97.29;102455.19;4997753;28;20446;-71
2023/05/17 04:05:44;;;;;;;18.70;6.22;;;;;;;7.60;96.28;102448.09;5009151;28;20084;-71
2023/05/17 04:08:09;;;;;;;17.20;4.68;;;;;;;7.61;97.52;102454.38;4998892;28;20515;-72
2023/05/17 04:10:35;;;;;;;20.10;5.40;;;;;;;7.59;97.33;102445.41;4989334;28;20049;-71
2023/05/17 04:13:02;;;;;;;15.98;5.40;;;;;;;7.56;96.25;102446.41;4989247;28;20034;-71
2023/05/17 04:15:27;;;;;;;11.95;4.60;;;;;;;7.57;97.59;102453.59;5005991;28;20034;-72
2023/05/17 04:17:53;;;;;;;14.30;5.35;;;;;;;7.53;96.83;102446.50;4988780;28;20125;-72
2023/05/17 04:20:18;;;;;;;14.68;4.65;;;;;;;7.56;96.19;102453.66;5004886;28;20018;-71
2023/05/17 04:22:44;;;;;;;16.75;6.43;;;;;;;7.56;97.44;102459.06;4987585;28;20089;-72
2023/05/17 04:25:10;;;;;;;21.35;5.60;;;;;;;7.57;96.93;102463.53;4988579;28;20449;-72
2023/05/17 04:27:35;;;;;;;19.08;5.60;;;;;;;7.54;97.69;102455.53;4988018;28;20027;-71
2023/05/17 04:30:04;;;;;;;14.38;4.93;;;;;;;7.55;96.55;102469.00;4988671;28;20037;-72
2023/05/17 04:32:29;;;;;;;11.85;5.53;;;;;;;7.58;97.48;102463.50;4989027;28;20038;-72
2023/05/17 04:34:55;;;;;;;16.55;5.85;;;;;;;7.61;96.58;102476.06;4988618;28;20034;-71
2023/05/17 04:37:21;;;;;;;16.10;5.30;;;;;;;7.63;96.95;102479.59;4987658;28;20250;-71
2023/05/17 04:39:51;;;;;;;16.00;5.10;;;;;;;7.61;97.26;102471.53;4988079;28;20121;-71
2023/05/17 04:42:17;;;;;;;19.15;5.70;;;;;;;7.66;97.12;102477.66;4999975;28;20034;-72
2023/05/17 04:44:48;;;;;;;17.55;5.40;;;;;;;7.73;98.49;102482.84;4988952;28;20146;-71
2023/05/17 04:47:13;;;;;;;16.35;5.95;;;;;;;7.77;98.61;102481.81;4998104;28;20126;-71
2023/05/17 04:49:40;;;;;;;15.48;5.20;;;;;;;7.82;98.61;102487.97;4988411;28;20038;-71
2023/05/17 04:52:06;;;;;;;17.40;6.00;;;;;;;7.84;99.46;102491.53;4987633;28;20433;-72
2023/05/17 04:54:31;;;;;;;16.60;5.70;;;;;;;7.79;98.32;102483.56;4988499;28;20039;-72
2023/05/17 04:56:57;;;;;;;18.90;5.82;;;;;;;7.91;98.04;102493.06;4988609;28;20042;-72
2023/05/17 04:59:42;;;;;;;14.38;5.82;;;;;;;7.98;99.85;102501.88;4989602;28;20049;-72
2023/05/17 05:02:09;;;;;;;14.20;5.90;;;;;;;7.99;99.30;102506.34;4988519;28;20034;-71
2023/05/17 05:04:34;;;;;;;17.70;5.05;;;;;;;8.01;98.84;102499.94;5008611;28;20044;-72
2023/05/17 05:07:00;;;;;;;16.75;6.20;;;;;;;8.06;100.00;102505.19;5007404;28;20018;-72
2023/05/17 05:09:25;;;;;;;25.90;7.50;;;;;;;8.12;99.95;102508.59;4998136;28;20030;-72
2023/05/17 05:11:51;;;;;;;20.75;6.15;;;;;;;8.19;100.00;102517.38;4987763;28;20034;-71
2023/05/17 05:14:16;;;;;;;19.52;5.65;;;;;;;8.27;99.48;102519.81;4988211;28;20109;-71
2023/05/17 05:16:41;;;;;;;12.80;5.93;;;;;;;8.37;99.17;102522.16;4987869;28;20173;-72
2023/05/17 05:19:07;;;;;;;21.73;6.05;;;;;;;8.44;99.21;102522.84;4988966;28;20386;-71
2023/05/17 05:21:34;;;;;;;16.98;6.45;;;;;;;8.48;99.56;102520.88;4987291;28;20030;-72
2023/05/17 05:23:59;;;;;;;17.80;5.97;;;;;;;8.52;100.00;102523.44;4987805;28;20026;-71
2023/05/17 05:26:24;;;;;;;18.45;5.78;;;;;;;8.58;100.00;102534.06;4991731;28;20117;-72
2023/05/17 05:28:50;;;;;;;14.65;5.05;;;;;;;8.63;100.00;102537.50;5004006;28;20097;-73
2023/05/17 05:31:16;;;;;;;20.23;5.95;;;;;;;8.72;100.00;102543.50;5004173;28;20038;-72
2023/05/17 05:33:47;;;;;;;16.17;5.18;;;;;;;8.83;100.00;102539.44;5003685;28;20030;-72
2023/05/17 05:36:12;;;;;;;19.98;5.82;;;;;;;8.98;100.00;102540.69;4987405;28;20101;-72
2023/05/17 05:38:38;;;;;;;18.63;5.85;;;;;;;9.10;99.34;102542.06;4986397;28;20057;-72
2023/05/17 05:41:04;;;;;;;15.02;5.57;;;;;;;9.16;99.18;102544.53;4990187;28;20072;-72
2023/05/17 05:43:29;;;;;;;16.92;6.15;;;;;;;9.16;98.92;102550.84;4989207;28;20058;-71
2023/05/17 05:45:55;;;;;;;16.10;4.93;;;;;;;9.16;99.10;102548.13;4985304;28;20034;-71
2023/05/17 05:48:20;;;;;;;13.95;5.03;;;;;;;9.19;99.04;102556.16;4987413;28;20030;-71
2023/05/17 05:50:46;;;;;;;13.27;5.05;;;;;;;9.16;97.93;102553.56;4988609;28;20034;-71
2023/05/17 05:53:12;;;;;;;17.17;5.03;;;;;;;9.17;98.49;102557.16;4986335;28;20494;-72
2023/05/17 05:55:41;;;;;;;17.10;4.95;;;;;;;9.18;98.88;102556.19;4986026;28;20034;-72
2023/05/17 05:58:06;;;;;;;16.77;5.35;;;;;;;9.20;98.02;102563.34;4992586;28;20054;-71
2023/05/17 06:00:32;;;;;;;22.55;6.68;;;;;;;9.19;98.65;102569.72;5003484;28;20069;-71
2023/05/17 06:02:58;;;;;;;20.35;5.38;;;;;;;9.17;97.49;102557.16;4988430;28;20088;-71
2023/05/17 06:05:23;;;;;;;18.08;5.95;;;;;;;9.23;97.80;102570.47;4988618;28;20038;-71
2023/05/17 06:07:48;;;;;;;13.70;5.13;;;;;;;9.27;96.73;102569.41;4987612;28;20030;-71
2023/05/17 06:10:14;;;;;;;21.92;5.85;;;;;;;9.28;95.35;102570.28;4987752;28;20049;-72
2023/05/17 06:12:39;;;;;;;13.93;4.07;;;;;;;9.32;94.64;102586.41;5003318;28;20037;-71
2023/05/17 06:15:05;;;;;;;15.50;4.78;;;;;;;9.34;94.42;102584.53;5008124;28;20498;-72
2023/05/17 06:17:31;;;;;;;13.60;4.28;;;;;;;9.37;92.80;102581.72;5008205;28;20493;-71
2023/05/17 06:19:56;;;;;;;17.17;4.68;;;;;;;9.41;93.73;102585.16;4999172;28;20030;-71
2023/05/17 06:22:21;;;;;;;17.30;3.95;;;;;;;9.42;93.42;102585.13;4987380;28;20044;-72
2023/05/17 06:24:47;;;;;;;15.32;4.28;;;;;;;9.52;94.04;102595.63;4986378;28;20121;-72
2023/05/17 06:27:12;;;;;;;22.05;5.40;;;;;;;9.57;90.94;102590.91;4987626;28;20042;-71
2023/05/17 06:29:38;;;;;;;9.07;3.20;;;;;;;9.60;87.26;102596.19;4988145;28;20041;-71
2023/05/17 06:32:03;;;;;;;14.80;4.05;;;;;;;9.64;87.00;102600.56;4987758;28;20042;-71
2023/05/17 06:34:28;;;;;;;14.93;3.75;;;;;;;9.66;86.96;102599.56;4987004;28;20072;-71
2023/05/17 06:36:54;;;;;;;13.73;2.90;;;;;;;9.71;83.98;102605.69;4985882;28;20058;-70
2023/05/17 06:39:20;;;;;;;12.52;3.20;;;;;;;9.74;81.70;102596.50;4986384;28;20042;-71
2023/05/17 06:41:45;;;;;;;11.35;2.78;;;;;;;9.71;78.41;102594.81;4992148;28;20042;-72
2023/05/17 06:44:15;;;;;;;12.63;2.88;;;;;;;9.67;79.86;102604.03;5005446;28;20095;-70
2023/05/17 06:46:40;;;;;;;7.80;2.78;;;;;;;9.63;77.82;102604.22;5006040;28;20034;-71
2023/05/17 06:49:06;;;;;;;10.50;2.22;;;;;;;9.63;79.02;102612.38;4988745;28;20027;-72
2023/05/17 06:51:31;;;;;;;11.05;2.38;;;;;;;9.64;79.27;102614.13;5002833;28;20045;-71
2023/05/17 06:53:57;;;;;;;12.43;2.28;;;;;;;9.71;79.16;102616.56;4986281;28;20113;-72
2023/05/17 06:56:22;;;;;;;12.68;2.78;;;;;;;9.80;77.15;102606.28;4988287;28;20450;-71
2023/05/17 06:58:47;;;;;;;12.40;3.28;;;;;;;9.88;77.26;102610.41;4987358;28;20178;-71
2023/05/17 07:01:13;;;;;;;12.32;3.03;;;;;;;10.01;76.47;102615.34;4986524;28;20030;-70
2023/05/17 07:03:38;;;;;;;17.63;2.72;;;;;;;10.05;75.86;102609.72;4994688;28;20046;-71
2023/05/17 07:06:04;;;;;;;14.25;2.40;;;;;;;10.08;75.19;102620.47;4987210;28;20045;-70
2023/05/17 07:08:29;;;;;;;12.02;2.33;;;;;;;10.10;75.04;102615.84;4985653;28;20069;-71
2023/05/17 07:10:55;;;;;;;9.10;1.83;;;;;;;10.10;75.04;102620.41;5001993;28;20022;-71
2023/05/17 07:13:20;;;;;;;11.70;2.50;;;;;;;10.10;74.62;102623.13;5004025;28;20033;-70
2023/05/17 07:15:45;;;;;;;15.27;2.80;;;;;;;10.14;76.52;102622.94;5007331;28;20037;-71
2023/05/17 07:18:11;;;;;;;15.60;2.15;;;;;;;10.28;74.37;102629.66;5004387;28;20044;-72
2023/05/17 07:20:36;;;;;;;11.82;2.25;;;;;;;10.44;74.91;102622.59;4986003;28;20042;-71
2023/05/17 07:23:02;;;;;;;12.73;3.45;;;;;;;10.44;74.10;102612.63;4985464;28;20045;-70
2023/05/17 07:25:28;;;;;;;10.40;3.05;;;;;;;10.58;73.67;102627.44;4987172;28;20158;-70
2023/05/17 07:27:53;;;;;;;9.38;1.98;;;;;;;10.69;75.30;102627.88;4987074;28;20026;-71
2023/05/17 07:30:19;;;;;;;6.75;1.92;;;;;;;10.88;74.37;102630.66;4986001;28;20076;-70
2023/05/17 07:32:44;;;;;;;9.30;2.28;;;;;;;10.96;73.57;102629.34;4986967;28;20030;-71
2023/05/17 07:35:10;;;;;;;13.77;2.13;;;;;;;11.06;70.78;102637.09;4985764;28;20057;-70
2023/05/17 07:37:35;;;;;;;16.25;2.20;;;;;;;11.17;68.82;102630.19;4984390;28;20038;-70
2023/05/17 07:40:01;;;;;;;11.02;2.17;;;;;;;11.23;69.67;102643.53;4987510;28;20057;-71
2023/05/17 07:42:26;;;;;;;16.38;2.58;;;;;;;11.36;71.27;102648.41;4989414;28;20117;-71
2023/05/17 07:44:51;;;;;;;16.88;3.13;;;;;;;11.50;71.01;102643.19;4986933;28;20052;-71
2023/05/17 07:47:17;;;;;;;11.20;2.00;;;;;;;11.60;70.18;102655.41;4986557;28;20066;-71
2023/05/17 07:49:42;;;;;;;9.63;2.15;;;;;;;11.71;70.29;102654.94;4986740;28;20041;-70
2023/05/17 07:52:07;;;;;;;8.32;2.05;;;;;;;11.61;65.83;102651.75;4985867;28;20035;-70
2023/05/17 07:54:33;;;;;;;10.45;2.38;;;;;;;11.58;68.11;102660.06;4986417;28;20118;-71
2023/05/17 07:56:59;;;;;;;8.35;1.77;;;;;;;11.54;64.17;102655.72;4994020;28;20124;-71
2023/05/17 07:59:24;;;;;;;13.73;2.42;;;;;;;11.54;66.71;102663.03;4985150;28;20019;-71
2023/05/17 08:01:51;;;;;;;11.90;2.00;;;;;;;11.43;66.24;102656.25;4986411;28;20038;-71
2023/05/17 08:04:18;;;;;;;10.05;1.88;;;;;;;11.55;65.13;102654.75;4998958;28;20508;-71
2023/05/17 08:06:47;;;;;;;10.77;1.92;;;;;;;11.85;65.96;102663.34;5001314;28;20123;-70
2023/05/17 08:09:14;;;;;;;22.25;2.33;;;;;;;12.48;66.97;102658.34;4985929;28;20110;-71
2023/05/17 08:11:44;;;;;;;15.00;2.35;;;;;;;12.94;60.71;102655.06;4992859;28;20045;-71
2023/05/17 08:14:16;;;;;;;16.10;2.17;;;;;;;13.09;61.76;102661.53;5006250;28;20517;-71
2023/05/17 08:16:42;;;;;;;17.40;2.60;;;;;;;13.39;65.16;102651.72;5004672;28;20096;-70
2023/05/17 08:19:14;;;;;;;8.18;1.98;;;;;;;13.61;59.82;102661.44;5001235;28;20491;-71
2023/05/17 08:21:40;;;;;;;11.38;2.03;;;;;;;13.73;57.65;102660.75;4988257;28;20073;-70
2023/05/17 08:24:06;;;;;;;8.68;2.03;;;;;;;13.55;57.02;102670.88;5004444;28;20023;-70
2023/05/17 08:26:32;;;;;;;13.75;2.33;;;;;;;13.36;62.95;102671.00;4989829;28;20042;-72
2023/05/17 08:28:58;;;;;;;8.63;1.75;;;;;;;13.55;61.89;102670.00;4990228;28;20041;-71
2023/05/17 08:31:23;;;;;;;8.35;1.33;;;;;;;13.88;61.85;102656.25;5005306;28;20038;-71
2023/05/17 08:33:48;;;;;;;10.82;1.65;;;;;;;14.68;60.92;102655.19;4989858;28;20050;-70
2023/05/17 08:36:14;;;;;;;6.50;2.10;;;;;;;15.50;57.82;102655.50;4989255;28;20093;-71
2023/05/17 08:38:40;;;;;;;13.32;2.83;;;;;;;15.75;54.71;102657.56;4988941;28;20053;-71
2023/05/17 08:41:05;;;;;;;12.27;2.00;;;;;;;15.45;54.78;102654.03;4989492;28;20039;-70
2023/05/17 08:43:31;;;;;;;8.40;1.83;;;;;;;15.37;55.42;102654.53;4990387;28;20495;-71
2023/05/17 08:45:56;;;;;;;7.30;1.80;;;;;;;15.72;53.29;102665.13;4989894;28;20052;-70
2023/05/17 08:48:23;;;;;;;5.75;1.33;;;;;;;16.14;55.41;102658.66;5004523;28;20572;-70
2023/05/17 08:50:54;;;;;;;11.85;2.30;;;;;;;16.40;53.45;102659.63;5004746;28;20046;-70
2023/05/17 08:53:20;;;;;;;9.70;1.77;;;;;;;16.12;47.40;102663.34;4988461;28;20613;-70
2023/05/17 08:55:49;;;;;;;5.15;1.48;;;;;;;15.56;49.23;102666.06;4987799;28;20398;-71
2023/05/17 08:58:29;;;;;;;8.07;1.85;;;;;;;15.51;53.28;102665.47;4988582;28;20038;-71
2023/05/17 09:00:56;;;;;;;7.43;1.85;;;;;;;15.09;49.70;102673.69;4989731;28;20050;-71
2023/05/17 09:03:22;;;;;;;13.02;2.08;;;;;;;15.10;51.77;102667.22;4989213;28;20347;-70
2023/05/17 09:05:52;;;;;;;11.27;1.52;;;;;;;15.22;50.20;102666.47;5004470;28;20026;-70
2023/05/17 09:08:20;;;;;;;7.53;2.65;;;;;;;15.25;48.47;102669.03;4988441;28;20092;-70
2023/05/17 09:10:45;;;;;;;10.85;1.85;;;;;;;15.34;51.60;102670.28;4989073;28;20066;-70
2023/05/17 09:13:11;;;;;;;4.95;1.80;;;;;;;15.38;51.00;102667.25;4988673;28;20691;-70
2023/05/17 09:15:37;;;;;;;9.63;2.00;;;;;;;15.72;50.39;102662.38;4989325;28;20104;-70
2023/05/17 09:18:02;;;;;;;9.15;1.90;;;;;;;15.97;46.04;102669.88;4988882;28;20109;-71
2023/05/17 09:20:33;;;;;;;8.77;2.08;;;;;;;15.59;48.01;102664.13;4989509;28;20034;-71
2023/05/17 09:22:59;;;;;;;8.80;1.88;;;;;;;15.27;47.00;102664.31;4999134;28;20034;-70
2023/05/17 09:25:25;;;;;;;10.35;2.10;;;;;;;15.07;49.84;102664.69;5006727;28;20377;-70
2023/05/17 09:27:52;;;;;;;7.60;1.85;;;;;;;14.90;49.63;102666.59;4990478;28;20045;-70
2023/05/17 09:30:17;;;;;;;8.95;1.90;;;;;;;15.10;49.39;102661.75;5003797;28;20042;-71
2023/05/17 09:32:44;;;;;;;10.50;2.22;;;;;;;15.81;53.44;102656.31;4987848;28;20053;-70
2023/05/17 09:35:10;;;;;;;8.68;1.92;;;;;;;16.20;47.69;102662.84;4987665;28;20031;-71
2023/05/17 09:37:37;;;;;;;10.05;1.92;;;;;;;16.12;46.58;102659.75;4987497;28;20042;-71
2023/05/17 09:40:05;;;;;;;9.15;1.80;;;;;;;16.44;54.63;102658.44;4988145;28;20100;-71
2023/05/17 09:42:36;;;;;;;11.77;2.38;;;;;;;17.12;49.70;102662.91;4988905;28;20034;-70
2023/05/17 09:45:02;;;;;;;10.55;1.92;;;;;;;16.90;47.97;102657.16;4988110;28;20096;-70
2023/05/17 09:47:29;;;;;;;12.25;1.90;;;;;;;17.03;46.01;102658.94;4989008;28;20041;-70
2023/05/17 09:49:56;;;;;;;8.90;1.70;;;;;;;17.50;49.80;102656.50;4987277;28;20084;-70
2023/05/17 09:52:23;;;;;;;8.63;1.85;;;;;;;17.84;46.61;102655.81;4988118;28;20241;-71
2023/05/17 09:54:59;;;;;;;6.88;1.90;;;;;;;18.15;46.82;102655.41;4988162;28;20479;-71
2023/05/17 09:57:35;;;;;;;8.38;1.80;;;;;;;18.40;47.01;102658.03;4987730;28;20052;-70
2023/05/17 10:00:01;;;;;;;9.02;1.80;;;;;;;18.73;46.04;102660.06;5004171;28;20688;-71
2023/05/17 10:02:31;;;;;;;6.93;1.80;;;;;;;19.28;50.33;102661.22;4992768;28;20084;-70
2023/05/17 10:04:59;;;;;;;10.30;2.10;;;;;;;19.26;44.52;102657.72;5003668;28;20030;-70
2023/05/17 10:07:25;;;;;;;5.18;1.40;;;;;;;18.94;44.49;102662.16;4987526;28;20461;-70
2023/05/17 10:09:54;;;;;;;8.57;1.75;;;;;;;18.10;41.15;102667.63;4987396;28;20041;-71
2023/05/17 10:12:28;;;;;;;7.20;1.75;;;;;;;17.62;46.90;102655.59;4987905;28;20100;-70
2023/05/17 10:14:55;;;;;;;9.07;1.67;;;;;;;17.94;46.20;102661.50;4988727;28;20042;-71
2023/05/17 10:17:21;;;;;;;6.18;1.48;;;;;;;17.94;42.71;102672.53;4986699;28;20030;-71
2023/05/17 10:19:47;;;;;;;5.82;1.73;;;;;;;18.10;43.32;102666.75;4987557;28;20403;-71
2023/05/17 10:22:15;;;;;;;7.18;1.88;;;;;;;18.30;43.16;102666.13;4994692;28;20034;-70
2023/05/17 10:24:42;;;;;;;8.98;1.60;;;;;;;18.32;42.28;102664.13;5005942;28;20054;-71
2023/05/17 10:27:08;;;;;;;8.93;1.67;;;;;;;18.11;43.47;102668.53;4994150;28;20038;-69
2023/05/17 10:29:37;;;;;;;6.35;1.55;;;;;;;18.17;44.60;102665.28;4986399;28;20035;-70
2023/05/17 10:32:11;;;;;;;8.82;2.28;;;;;;;18.04;42.80;102651.56;4989532;28;20034;-69
2023/05/17 10:34:38;;;;;;;10.70;1.80;;;;;;;18.06;46.41;102666.09;4986453;28;20061;-71
2023/05/17 10:37:05;;;;;;;6.28;1.85;;;;;;;17.85;40.02;102654.81;4985172;28;20095;-70
2023/05/17 10:39:33;;;;;;;5.22;1.38;;;;;;;18.20;45.26;102643.03;4987299;28;20423;-70
2023/05/17 10:42:02;;;;;;;6.60;1.67;;;;;;;18.05;40.06;102658.84;4987292;28;20069;-70
2023/05/17 10:44:31;;;;;;;6.30;1.98;;;;;;;17.70;43.29;102652.28;4987952;28;20117;-70
2023/05/17 10:46:58;;;;;;;6.80;1.65;;;;;;;18.07;44.96;102659.59;4986580;28;20485;-70
2023/05/17 10:49:32;;;;;;;5.03;1.55;;;;;;;18.25;44.04;102646.31;5002609;28;20038;-71
2023/05/17 10:52:20;;;;;;;6.07;1.30;;;;;;;18.63;44.55;102652.63;4986277;28;20034;-70
2023/05/17 10:54:48;;;;;;;6.43;1.30;;;;;;;18.90;40.96;102646.84;4986596;28;20045;-71
2023/05/17 10:57:35;;;;;;;8.65;1.73;;;;;;;18.92;39.14;102647.59;4994586;28;20088;-68
2023/05/17 11:00:05;;;;;;;5.97;1.50;;;;;;;18.12;37.23;102626.19;5007814;28;20484;-69
2023/05/17 11:02:31;;;;;;;7.63;2.10;;;;;;;18.21;40.63;102635.63;4990860;28;20401;-69
2023/05/17 11:04:59;;;;;;;4.75;1.30;;;;;;;17.96;39.96;102643.00;5005705;28;20033;-67
2023/05/17 11:07:30;;;;;;;7.28;1.50;;;;;;;17.95;40.35;102633.00;5006133;28;20389;-70
2023/05/17 11:09:59;;;;;;;5.10;1.60;;;;;;;18.19;41.37;102633.00;5006843;28;20045;-71
2023/05/17 11:12:35;;;;;;;2.92;1.30;;;;;;;18.70;40.75;102632.78;4988060;28;20132;-71
2023/05/17 11:15:11;;;;;;;6.60;1.63;;;;;;;18.46;39.21;102627.22;4988313;28;20088;-68
2023/05/17 11:17:42;;;;;;;9.10;1.52;;;;;;;18.70;42.98;102632.78;4986926;28;20042;-68
2023/05/17 11:20:14;;;;;;;8.48;1.75;;;;;;;18.46;42.09;102634.63;4987142;28;20048;-70
2023/05/17 11:22:59;;;;;;;8.75;1.70;;;;;;;18.36;41.53;102629.81;4986436;28;20050;-70
2023/05/17 11:25:29;;;;;;;6.72;1.48;;;;;;;18.48;39.00;102635.41;4987016;28;20038;-70